createdAt,value
2022-10-17T00:00:02.677Z,2.33
2022-10-17T00:02:30.947Z,2.40
2022-10-17T00:04:59.288Z,2.10
2022-10-17T00:07:27.666Z,1.80
2022-10-17T00:09:56.269Z,1.90
2022-10-17T00:12:26.280Z,1.80
2022-10-17T00:14:54.431Z,2.28
2022-10-17T00:17:22.651Z,2.10
2022-10-17T00:19:51.213Z,2.88
2022-10-17T00:22:19.551Z,2.10
2022-10-17T00:24:47.921Z,1.80
2022-10-17T00:27:16.691Z,1.83
2022-10-17T00:29:49.904Z,1.77
2022-10-17T00:32:20.392Z,1.80
2022-10-17T00:34:48.680Z,1.70
2022-10-17T00:37:16.998Z,1.90
2022-10-17T00:39:45.397Z,1.98
2022-10-17T00:42:14.512Z,2.05
2022-10-17T00:45:05.624Z,2.15
2022-10-17T00:47:36.585Z,1.92
2022-10-17T00:50:06.051Z,1.70
2022-10-17T00:52:35.404Z,2.00
2022-10-17T00:55:10.593Z,1.70
2022-10-17T00:57:40.623Z,1.70
2022-10-17T01:00:12.445Z,2.00
2022-10-17T01:02:40.801Z,1.85
2022-10-17T01:05:10.131Z,1.50
2022-10-17T01:07:41.027Z,2.60
2022-10-17T01:10:10.225Z,2.10
2022-10-17T01:13:01.942Z,2.13
2022-10-17T01:15:43.001Z,2.30
2022-10-17T01:18:20.877Z,1.95
2022-10-17T01:21:15.926Z,2.00
2022-10-17T01:24:22.876Z,1.80
2022-10-17T01:27:22.988Z,2.20
2022-10-17T01:30:26.910Z,1.70
2022-10-17T01:33:03.660Z,2.35
2022-10-17T01:35:37.630Z,2.00
2022-10-17T01:38:11.655Z,1.65
2022-10-17T01:40:46.203Z,2.25
2022-10-17T01:43:20.950Z,2.08
2022-10-17T01:45:54.294Z,2.35
2022-10-17T01:48:26.417Z,1.88
2022-10-17T01:50:59.781Z,1.70
2022-10-17T01:53:33.683Z,1.70
2022-10-17T01:56:03.951Z,1.75
2022-10-17T01:58:35.269Z,1.60
2022-10-17T02:01:08.147Z,1.70
2022-10-17T02:03:38.794Z,1.80
2022-10-17T02:06:07.776Z,1.90
2022-10-17T02:08:44.670Z,1.80
2022-10-17T02:11:16.095Z,1.42
2022-10-17T02:14:03.695Z,1.70
2022-10-17T02:16:39.960Z,1.80
2022-10-17T02:19:42.165Z,1.55
2022-10-17T02:22:20.013Z,1.60
2022-10-17T02:24:53.611Z,1.88
2022-10-17T02:27:32.343Z,1.92
2022-10-17T02:30:07.902Z,1.60
2022-10-17T02:32:41.240Z,1.70
2022-10-17T02:35:15.226Z,1.70
2022-10-17T02:37:45.475Z,1.60
2022-10-17T02:40:16.637Z,1.73
2022-10-17T02:42:47.469Z,1.95
2022-10-17T02:45:17.051Z,1.88
2022-10-17T02:47:53.259Z,2.13
2022-10-17T02:53:07.967Z,1.55
2022-10-17T02:55:41.433Z,1.70
2022-10-17T02:58:16.054Z,1.80
2022-10-17T03:00:45.910Z,1.70
2022-10-17T03:03:22.659Z,1.60
2022-10-17T03:05:52.502Z,2.20
2022-10-17T03:08:21.103Z,1.80
2022-10-17T03:10:49.722Z,1.80
2022-10-17T03:13:18.499Z,1.95
2022-10-17T03:15:47.925Z,1.77
2022-10-17T03:18:16.090Z,1.92
2022-10-17T03:20:44.347Z,1.95
2022-10-17T03:23:13.831Z,2.20
2022-10-17T03:25:45.303Z,1.65
2022-10-17T03:28:13.535Z,1.80
2022-10-17T03:30:41.713Z,1.77
2022-10-17T03:33:09.967Z,1.70
2022-10-17T03:35:41.063Z,2.08
2022-10-17T03:38:09.181Z,1.85
2022-10-17T03:40:38.897Z,1.65
2022-10-17T03:43:07.483Z,2.08
2022-10-17T03:45:36.958Z,1.63
2022-10-17T03:48:05.621Z,1.85
2022-10-17T03:50:34.047Z,1.98
2022-10-17T03:53:02.804Z,1.90
2022-10-17T03:55:31.089Z,1.83
2022-10-17T03:58:01.123Z,2.00
2022-10-17T04:00:29.505Z,2.13
2022-10-17T04:02:58.545Z,2.00
2022-10-17T04:05:26.746Z,1.80
2022-10-17T04:07:57.069Z,1.92
2022-10-17T04:10:26.976Z,2.30
2022-10-17T04:12:58.014Z,2.00
2022-10-17T04:15:27.562Z,2.25
2022-10-17T04:17:56.150Z,2.42
2022-10-17T04:20:24.735Z,2.60
2022-10-17T04:22:53.284Z,2.33
2022-10-17T04:25:21.371Z,2.00
2022-10-17T04:27:50.114Z,2.08
2022-10-17T04:30:18.825Z,1.98
2022-10-17T04:32:48.379Z,2.15
2022-10-17T04:35:16.612Z,2.00
2022-10-17T04:37:44.822Z,2.55
2022-10-17T04:40:13.343Z,2.25
2022-10-17T04:42:41.471Z,2.38
2022-10-17T04:45:10.455Z,2.47
2022-10-17T04:47:38.584Z,2.35
2022-10-17T04:50:08.844Z,2.47
2022-10-17T04:52:38.183Z,2.30
2022-10-17T04:55:07.105Z,2.65
2022-10-17T04:57:36.618Z,2.10
2022-10-17T05:00:05.830Z,2.60
2022-10-17T05:02:34.105Z,2.15
2022-10-17T05:05:02.307Z,2.40
2022-10-17T05:07:31.846Z,2.20
2022-10-17T05:10:00.101Z,2.25
2022-10-17T05:12:28.939Z,2.08
2022-10-17T05:14:57.352Z,2.30
2022-10-17T05:17:25.509Z,2.70
2022-10-17T05:19:53.706Z,2.55
2022-10-17T05:22:21.876Z,2.58
2022-10-17T05:24:52.039Z,1.90
2022-10-17T05:27:20.336Z,2.50
2022-10-17T05:29:48.413Z,2.20
2022-10-17T05:32:18.570Z,2.25
2022-10-17T05:34:46.765Z,2.30
2022-10-17T05:37:15.297Z,2.30
2022-10-17T05:39:46.753Z,2.75
2022-10-17T05:42:18.723Z,2.40
2022-10-17T05:44:47.556Z,2.60
2022-10-17T05:47:16.121Z,2.28
2022-10-17T05:49:49.772Z,2.40
2022-10-17T05:52:21.069Z,2.28
2022-10-17T05:54:49.260Z,2.30
2022-10-17T05:57:18.802Z,2.20
2022-10-17T05:59:46.940Z,2.55
2022-10-17T06:02:15.392Z,2.00
2022-10-17T06:04:46.170Z,3.03
2022-10-17T06:07:14.878Z,2.63
2022-10-17T06:09:43.463Z,2.25
2022-10-17T06:12:11.819Z,2.60
2022-10-17T06:14:41.517Z,2.10
2022-10-17T06:17:16.042Z,2.42
2022-10-17T06:19:45.353Z,1.98
2022-10-17T06:22:14.274Z,2.20
2022-10-17T06:24:43.086Z,2.00
2022-10-17T06:27:12.252Z,2.35
2022-10-17T06:29:42.545Z,2.08
2022-10-17T06:32:14.215Z,1.98
2022-10-17T06:35:02.298Z,2.25
2022-10-17T06:37:51.113Z,2.10
2022-10-17T06:40:40.139Z,2.10
2022-10-17T06:43:29.408Z,2.50
2022-10-17T06:46:20.514Z,1.95
2022-10-17T06:48:49.183Z,2.30
2022-10-17T06:51:17.586Z,1.90
2022-10-17T06:53:47.138Z,2.50
2022-10-17T06:56:15.819Z,2.33
2022-10-17T06:58:44.174Z,2.30
2022-10-17T07:01:14.854Z,2.08
2022-10-17T07:03:50.223Z,2.25
2022-10-17T07:06:19.360Z,2.13
2022-10-17T07:08:48.491Z,2.00
2022-10-17T07:11:18.059Z,2.13
2022-10-17T07:13:46.813Z,2.15
2022-10-17T07:16:17.265Z,1.95
2022-10-17T07:18:50.780Z,1.95
2022-10-17T07:21:20.040Z,2.40
2022-10-17T07:23:48.390Z,2.10
2022-10-17T07:26:19.017Z,1.98
2022-10-17T07:28:52.121Z,2.78
2022-10-17T07:31:22.625Z,2.00
2022-10-17T07:33:53.186Z,2.13
2022-10-17T07:36:21.836Z,2.25
2022-10-17T07:38:51.618Z,2.05
2022-10-17T07:41:21.955Z,2.15
2022-10-17T07:43:51.031Z,2.67
2022-10-17T07:46:19.418Z,2.05
2022-10-17T07:48:48.067Z,2.50
2022-10-17T07:51:18.780Z,2.40
2022-10-17T07:53:48.908Z,2.55
2022-10-17T07:56:19.060Z,2.55
2022-10-17T07:58:48.367Z,2.25
2022-10-17T08:01:17.657Z,2.70
2022-10-17T08:03:47.184Z,2.42
2022-10-17T08:06:17.349Z,2.25
2022-10-17T08:08:46.220Z,2.25
2022-10-17T08:11:15.874Z,2.33
2022-10-17T08:13:44.600Z,2.70
2022-10-17T08:16:14.425Z,2.30
2022-10-17T08:18:43.994Z,2.40
2022-10-17T08:21:14.661Z,2.00
2022-10-17T08:23:44.296Z,2.25
2022-10-17T08:26:17.268Z,2.50
2022-10-17T08:28:45.670Z,1.95
2022-10-17T08:31:16.013Z,2.78
2022-10-17T08:33:45.005Z,2.22
2022-10-17T08:36:15.630Z,2.20
2022-10-17T08:38:48.006Z,2.50
2022-10-17T08:41:35.987Z,2.25
2022-10-17T08:44:11.328Z,2.50
2022-10-17T08:46:45.076Z,2.58
2022-10-17T08:49:17.470Z,2.38
2022-10-17T08:51:52.572Z,2.58
2022-10-17T08:54:27.442Z,2.47
2022-10-17T08:56:57.082Z,2.05
2022-10-17T08:59:29.191Z,2.50
2022-10-17T09:02:04.121Z,2.15
2022-10-17T09:04:52.418Z,2.28
2022-10-17T09:07:26.335Z,1.92
2022-10-17T09:10:04.544Z,2.20
2022-10-17T09:12:41.720Z,2.17
2022-10-17T09:15:38.744Z,2.60
2022-10-17T09:18:12.851Z,2.20
2022-10-17T09:20:45.944Z,2.05
2022-10-17T09:23:18.773Z,2.20
2022-10-17T09:25:51.264Z,2.17
2022-10-17T09:28:23.803Z,2.00
2022-10-17T09:30:58.105Z,2.40
2022-10-17T09:33:35.873Z,2.30
2022-10-17T09:36:14.163Z,2.33
2022-10-17T09:38:44.381Z,2.33
2022-10-17T09:41:44.180Z,2.20
2022-10-17T09:44:18.548Z,2.55
2022-10-17T09:47:07.687Z,2.15
2022-10-17T09:49:37.808Z,2.10
2022-10-17T09:52:13.096Z,2.13
2022-10-17T09:54:45.401Z,1.80
2022-10-17T09:57:16.658Z,2.20
2022-10-17T09:59:50.015Z,2.30
2022-10-17T10:02:22.580Z,1.98
2022-10-17T10:05:04.079Z,2.28
2022-10-17T10:07:35.543Z,2.20
2022-10-17T10:10:07.513Z,1.80
2022-10-17T10:12:40.138Z,2.17
2022-10-17T10:15:34.457Z,2.25
2022-10-17T10:18:03.636Z,2.17
2022-10-17T10:20:35.571Z,2.47
2022-10-17T10:23:16.004Z,1.95
2022-10-17T10:25:56.047Z,1.90
2022-10-17T10:28:34.616Z,2.17
2022-10-17T10:31:06.570Z,2.10
2022-10-17T10:33:41.497Z,2.40
2022-10-17T10:36:10.680Z,1.80
2022-10-17T10:38:42.508Z,2.05
2022-10-17T10:41:12.501Z,2.10
2022-10-17T10:43:45.136Z,1.95
2022-10-17T10:46:20.468Z,2.25
2022-10-17T10:48:53.309Z,1.88
2022-10-17T10:51:30.505Z,1.67
2022-10-17T10:54:06.431Z,1.98
2022-10-17T10:56:46.344Z,1.83
2022-10-17T10:59:26.081Z,2.00
2022-10-17T11:02:02.872Z,2.22
2022-10-17T11:04:37.136Z,1.48
2022-10-17T11:07:11.751Z,2.42
2022-10-17T11:09:50.062Z,1.90
2022-10-17T11:12:23.300Z,2.00
2022-10-17T11:14:57.920Z,1.98
2022-10-17T11:17:33.976Z,2.00
2022-10-17T11:20:12.646Z,1.95
2022-10-17T11:22:45.525Z,2.08
2022-10-17T11:25:30.330Z,2.40
2022-10-17T11:28:04.471Z,2.10
2022-10-17T11:33:18.299Z,1.80
2022-10-17T11:35:50.322Z,1.80
2022-10-17T11:38:23.727Z,2.00
2022-10-17T11:40:53.553Z,1.92
2022-10-17T11:43:29.972Z,2.10
2022-10-17T11:46:06.767Z,2.00
2022-10-17T11:48:41.607Z,1.80
2022-10-17T11:54:15.315Z,1.85
2022-10-17T11:56:51.871Z,1.95
2022-10-17T11:59:50.043Z,1.90
2022-10-17T12:02:29.426Z,2.10
2022-10-17T12:05:05.087Z,1.92
2022-10-17T12:10:28.858Z,1.83
2022-10-17T12:13:41.965Z,2.10
2022-10-17T12:16:39.643Z,2.38
2022-10-17T12:19:26.537Z,2.10
2022-10-17T12:21:57.737Z,2.20
2022-10-17T12:24:40.417Z,1.92
2022-10-17T12:27:43.639Z,2.38
2022-10-17T12:30:24.015Z,2.13
2022-10-17T12:33:07.438Z,2.05
2022-10-17T12:35:39.465Z,1.77
2022-10-17T12:38:29.468Z,1.90
2022-10-17T12:41:03.250Z,1.98
2022-10-17T12:44:02.965Z,2.13
2022-10-17T12:46:48.261Z,1.90
2022-10-17T12:49:41.075Z,1.92
2022-10-17T12:52:47.823Z,1.77
2022-10-17T12:55:19.757Z,2.25
2022-10-17T12:58:00.740Z,1.95
2022-10-17T13:00:37.832Z,1.40
2022-10-17T13:03:15.523Z,2.22
2022-10-17T13:05:48.155Z,1.67
2022-10-17T13:08:21.105Z,1.67
2022-10-17T13:10:52.795Z,2.08
2022-10-17T13:13:24.798Z,1.65
2022-10-17T13:15:54.955Z,2.15
2022-10-17T13:18:24.566Z,2.10
2022-10-17T13:21:02.005Z,1.60
2022-10-17T13:23:34.340Z,1.92
2022-10-17T13:26:23.573Z,1.70
2022-10-17T13:29:06.250Z,2.53
2022-10-17T13:31:36.623Z,1.92
2022-10-17T13:34:07.867Z,2.65
2022-10-17T13:36:37.194Z,2.30
2022-10-17T13:39:14.966Z,1.90
2022-10-17T13:41:47.327Z,2.35
2022-10-17T13:44:25.055Z,2.20
2022-10-17T13:46:54.299Z,2.20
2022-10-17T13:49:28.261Z,2.20
2022-10-17T13:51:59.810Z,1.80
2022-10-17T13:54:37.605Z,1.70
2022-10-17T13:57:17.771Z,2.20
2022-10-17T13:59:49.083Z,2.20
2022-10-17T14:02:26.312Z,1.80
2022-10-17T14:05:19.301Z,2.15
2022-10-17T14:10:43.665Z,1.90
2022-10-17T14:13:23.188Z,2.00
2022-10-17T14:15:52.348Z,1.70
2022-10-17T14:18:22.959Z,2.10
2022-10-17T14:23:43.300Z,2.25
2022-10-17T14:26:17.464Z,2.28
2022-10-17T14:28:51.059Z,2.08
2022-10-17T14:31:30.618Z,2.40
2022-10-17T14:33:59.232Z,2.08
2022-10-17T14:36:38.509Z,1.70
2022-10-17T14:39:20.414Z,2.10
2022-10-17T14:41:51.197Z,2.00
2022-10-17T14:44:30.514Z,1.98
2022-10-17T14:47:18.366Z,2.10
2022-10-17T14:49:53.788Z,2.40
2022-10-17T14:52:31.543Z,2.13
2022-10-17T14:55:18.829Z,2.05
2022-10-17T14:57:48.287Z,2.22
2022-10-17T15:00:19.843Z,2.10
2022-10-17T15:02:50.079Z,1.98
2022-10-17T15:05:20.633Z,2.00
2022-10-17T15:07:49.898Z,2.15
2022-10-17T15:10:36.738Z,2.22
2022-10-17T15:15:56.119Z,2.13
2022-10-17T15:18:25.307Z,2.03
2022-10-17T15:21:04.564Z,2.20
2022-10-17T15:23:36.963Z,1.90
2022-10-17T15:26:10.281Z,2.17
2022-10-17T15:28:42.002Z,1.90
2022-10-17T15:31:14.463Z,1.85
2022-10-17T15:33:43.871Z,2.50
2022-10-17T15:36:24.232Z,2.10
2022-10-17T15:38:55.514Z,2.50
2022-10-17T15:41:27.254Z,2.53
2022-10-17T15:43:55.780Z,2.08
2022-10-17T15:46:29.906Z,2.50
2022-10-17T15:49:02.485Z,2.40
2022-10-17T15:51:33.779Z,2.35
2022-10-17T15:54:05.766Z,2.55
2022-10-17T15:56:38.631Z,2.47
2022-10-17T15:59:12.932Z,2.35
2022-10-17T16:01:43.651Z,2.25
2022-10-17T16:04:15.832Z,2.50
2022-10-17T16:06:44.910Z,2.58
2022-10-17T16:09:13.391Z,2.60
2022-10-17T16:11:44.919Z,2.50
2022-10-17T16:14:19.537Z,2.55
2022-10-17T16:16:49.253Z,2.30
2022-10-17T16:19:17.708Z,2.97
2022-10-17T16:21:48.332Z,2.47
2022-10-17T16:24:19.145Z,2.17
2022-10-17T16:26:47.713Z,2.88
2022-10-17T16:29:16.510Z,2.45
2022-10-17T16:31:47.202Z,2.40
2022-10-17T16:34:18.195Z,2.60
2022-10-17T16:36:46.473Z,2.90
2022-10-17T16:39:15.860Z,2.70
2022-10-17T16:41:44.199Z,2.38
2022-10-17T16:44:14.798Z,2.40
2022-10-17T16:46:43.091Z,2.38
2022-10-17T16:49:12.279Z,2.35
2022-10-17T16:51:41.889Z,2.88
2022-10-17T16:54:10.664Z,2.30
2022-10-17T16:56:41.310Z,2.72
2022-10-17T16:59:12.705Z,2.60
2022-10-17T17:01:41.817Z,2.92
2022-10-17T17:04:10.476Z,2.83
2022-10-17T17:06:39.384Z,2.92
2022-10-17T17:09:09.963Z,2.40
2022-10-17T17:11:41.212Z,2.55
2022-10-17T17:14:13.899Z,2.58
2022-10-17T17:16:45.483Z,3.10
2022-10-17T17:19:17.185Z,2.72
2022-10-17T17:21:50.466Z,2.58
2022-10-17T17:24:22.248Z,3.13
2022-10-17T17:26:53.751Z,2.92
2022-10-17T17:29:22.940Z,2.83
2022-10-17T17:31:52.520Z,3.20
2022-10-17T17:34:23.961Z,3.28
2022-10-17T17:36:53.046Z,2.92
2022-10-17T17:39:22.836Z,3.22
2022-10-17T17:41:51.295Z,2.92
2022-10-17T17:44:19.968Z,3.28
2022-10-17T17:46:51.160Z,3.17
2022-10-17T17:49:19.959Z,2.85
2022-10-17T17:51:50.774Z,3.67
2022-10-17T17:54:19.658Z,3.00
2022-10-17T17:56:49.499Z,3.42
2022-10-17T17:59:17.834Z,3.65
2022-10-17T18:01:51.469Z,3.30
2022-10-17T18:04:20.522Z,2.92
2022-10-17T18:06:49.675Z,3.33
2022-10-17T18:09:18.609Z,2.90
2022-10-17T18:11:51.018Z,3.85
2022-10-17T18:14:23.972Z,3.08
2022-10-17T18:16:53.369Z,2.95
2022-10-17T18:19:23.823Z,3.13
2022-10-17T18:21:52.122Z,3.65
2022-10-17T18:24:20.659Z,3.67
2022-10-17T18:26:51.164Z,3.17
2022-10-17T18:29:19.455Z,3.50
2022-10-17T18:31:47.791Z,3.28
2022-10-17T18:34:16.076Z,3.40
2022-10-17T18:36:44.351Z,3.15
2022-10-17T18:39:13.380Z,3.55
2022-10-17T18:41:42.104Z,3.72
2022-10-17T18:44:12.897Z,3.50
2022-10-17T18:46:41.763Z,3.80
2022-10-17T18:49:11.670Z,3.58
2022-10-17T18:51:41.314Z,3.72
2022-10-17T18:54:13.813Z,3.88
2022-10-17T18:56:42.826Z,3.92
2022-10-17T18:59:12.737Z,3.60
2022-10-17T19:01:43.581Z,3.95
2022-10-17T19:04:12.614Z,3.33
2022-10-17T19:06:41.978Z,3.38
2022-10-17T19:09:12.487Z,3.53
2022-10-17T19:11:42.047Z,3.75
2022-10-17T19:14:13.995Z,3.20
2022-10-17T19:16:44.019Z,3.50
2022-10-17T19:19:14.954Z,3.83
2022-10-17T19:21:43.726Z,3.33
2022-10-17T19:24:17.633Z,3.58
2022-10-17T19:26:50.165Z,3.50
2022-10-17T19:29:20.585Z,3.88
2022-10-17T19:31:49.884Z,3.95
2022-10-17T19:34:18.979Z,3.60
2022-10-17T19:36:47.586Z,3.42
2022-10-17T19:39:18.176Z,3.38
2022-10-17T19:41:48.375Z,3.65
2022-10-17T19:44:17.192Z,3.80
2022-10-17T19:46:49.062Z,3.78
2022-10-17T19:49:18.304Z,3.55
2022-10-17T19:51:47.009Z,3.17
2022-10-17T19:54:18.226Z,3.60
2022-10-17T19:56:47.451Z,3.70
2022-10-17T19:59:18.197Z,3.90
2022-10-17T20:01:48.074Z,3.63
2022-10-17T20:04:16.424Z,3.40
2022-10-17T20:06:44.628Z,3.63
2022-10-17T20:09:16.746Z,3.58
2022-10-17T20:11:45.902Z,3.60
2022-10-17T20:14:17.790Z,4.18
2022-10-17T20:16:50.159Z,3.97
2022-10-17T20:19:21.520Z,3.58
2022-10-17T20:21:49.945Z,4.30
2022-10-17T20:24:18.854Z,3.63
2022-10-17T20:26:47.806Z,3.40
2022-10-17T20:29:19.248Z,3.90
2022-10-17T20:31:51.625Z,3.80
2022-10-17T20:34:20.748Z,3.42
2022-10-17T20:36:49.619Z,3.55
2022-10-17T20:39:19.870Z,4.07
2022-10-17T20:41:48.902Z,3.67
2022-10-17T20:44:17.456Z,3.33
2022-10-17T20:47:00.659Z,3.10
2022-10-17T20:49:32.632Z,4.50
2022-10-17T20:52:04.355Z,3.70
2022-10-17T20:54:32.589Z,3.50
2022-10-17T20:57:03.945Z,3.83
2022-10-17T20:59:35.232Z,4.10
2022-10-17T21:02:03.813Z,3.35
2022-10-17T21:04:51.742Z,3.25
2022-10-17T21:07:21.204Z,3.15
2022-10-17T21:09:50.566Z,3.50
2022-10-17T21:12:26.241Z,3.95
2022-10-17T21:15:06.407Z,3.80
2022-10-17T21:17:35.698Z,3.55
2022-10-17T21:20:06.385Z,4.20
2022-10-17T21:22:35.653Z,3.50
2022-10-17T21:25:05.234Z,3.75
2022-10-17T21:27:33.933Z,4.00
2022-10-17T21:32:51.477Z,4.40
2022-10-17T21:35:28.869Z,4.20
2022-10-17T21:37:58.631Z,4.65
2022-10-17T21:40:27.090Z,4.75
2022-10-17T21:42:55.811Z,4.13
2022-10-17T21:45:25.953Z,4.20
2022-10-17T21:48:12.215Z,3.80
2022-10-17T21:50:43.163Z,4.30
2022-10-17T21:53:14.161Z,4.28
2022-10-17T21:55:42.899Z,4.25
2022-10-17T21:58:14.431Z,4.05
2022-10-17T22:00:43.818Z,4.15
2022-10-17T22:03:12.844Z,4.05
2022-10-17T22:05:43.337Z,4.00
2022-10-17T22:08:14.114Z,4.05
2022-10-17T22:10:42.871Z,3.92
2022-10-17T22:13:11.255Z,4.55
2022-10-17T22:15:39.574Z,4.60
2022-10-17T22:18:13.022Z,5.10
2022-10-17T22:20:47.190Z,4.97
2022-10-17T22:23:16.186Z,5.25
2022-10-17T22:25:53.401Z,5.32
2022-10-17T22:28:21.971Z,5.57
2022-10-17T22:30:50.382Z,6.22
2022-10-17T22:33:18.736Z,6.28
2022-10-17T22:35:48.992Z,6.93
2022-10-17T22:38:17.398Z,7.32
2022-10-17T22:40:46.933Z,8.50
2022-10-17T22:43:15.564Z,7.47
2022-10-17T22:45:43.927Z,7.75
2022-10-17T22:48:12.830Z,7.40
2022-10-17T22:50:42.973Z,7.50
2022-10-17T22:53:13.347Z,7.60
2022-10-17T22:55:50.968Z,8.45
2022-10-17T22:58:19.283Z,7.68
2022-10-17T23:00:48.028Z,8.20
2022-10-17T23:03:17.337Z,7.43
2022-10-17T23:05:46.078Z,7.82
2022-10-17T23:08:18.915Z,7.95
2022-10-17T23:10:48.190Z,7.60
2022-10-17T23:13:17.096Z,7.72
2022-10-17T23:15:45.491Z,7.50
2022-10-17T23:18:13.864Z,8.30
2022-10-17T23:20:43.232Z,8.02
2022-10-17T23:23:14.309Z,8.25
2022-10-17T23:25:45.164Z,8.23
2022-10-17T23:28:14.267Z,7.68
2022-10-17T23:30:44.667Z,8.88
2022-10-17T23:33:13.928Z,8.48
2022-10-17T23:35:43.473Z,8.32
2022-10-17T23:38:13.933Z,9.23
2022-10-17T23:40:44.426Z,9.55
2022-10-17T23:43:12.627Z,8.98
2022-10-17T23:45:45.421Z,7.97
2022-10-17T23:48:14.912Z,9.50
2022-10-17T23:50:43.356Z,8.98
2022-10-17T23:53:12.354Z,9.43
2022-10-17T23:55:41.001Z,8.13
2022-10-17T23:58:11.139Z,8.85
